createdAt,value
2019-04-01T00:00:52.051Z,45.40
2019-04-01T00:04:59.596Z,45.20
2019-04-01T00:09:06.718Z,45.30
2019-04-01T00:13:12.314Z,45.40
2019-04-01T00:17:18.154Z,45.60
2019-04-01T00:21:24.431Z,46.00
2019-04-01T00:25:30.062Z,46.00
2019-04-01T00:29:35.939Z,45.90
2019-04-01T00:33:41.603Z,46.00
2019-04-01T00:37:47.394Z,46.00
2019-04-01T00:42:11.947Z,46.20
2019-04-01T00:46:18.860Z,46.80
2019-04-01T00:50:26.718Z,46.90
2019-04-01T00:54:32.485Z,47.10
2019-04-01T00:58:38.478Z,47.10
2019-04-01T01:02:47.149Z,47.10
2019-04-01T01:06:53.864Z,47.20
2019-04-01T01:10:59.602Z,47.00
2019-04-01T01:15:05.749Z,47.30
2019-04-01T01:19:12.613Z,47.30
2019-04-01T01:23:18.287Z,47.50
2019-04-01T01:27:24.617Z,47.80
2019-04-01T01:31:31.301Z,47.60
2019-04-01T01:35:37.125Z,47.70
2019-04-01T01:39:45.516Z,47.70
2019-04-01T01:43:51.370Z,47.80
2019-04-01T01:47:57.112Z,48.20
2019-04-01T01:52:02.857Z,48.20
2019-04-01T01:56:08.535Z,48.30
2019-04-01T02:00:15.466Z,48.30
2019-04-01T02:04:21.296Z,48.50
2019-04-01T02:08:27.288Z,48.40
2019-04-01T02:12:32.943Z,48.60
2019-04-01T02:16:39.958Z,48.50
2019-04-01T02:20:45.601Z,48.70
2019-04-01T02:24:51.250Z,48.70
2019-04-01T02:28:57.091Z,48.80
2019-04-01T02:33:03.263Z,48.90
2019-04-01T02:37:10.699Z,48.90
2019-04-01T02:41:16.286Z,49.00
2019-04-01T02:45:21.902Z,49.30
2019-04-01T02:49:27.558Z,49.30
2019-04-01T02:53:33.235Z,49.30
2019-04-01T02:57:38.854Z,49.50
2019-04-01T03:01:45.813Z,49.90
2019-04-01T03:05:52.511Z,50.00
2019-04-01T03:09:58.227Z,50.00
2019-04-01T03:14:03.974Z,50.20
2019-04-01T03:18:10.794Z,50.40
2019-04-01T03:22:16.474Z,49.70
2019-04-01T03:26:22.455Z,50.30
2019-04-01T03:30:28.100Z,50.30
2019-04-01T03:34:35.105Z,50.40
2019-04-01T03:38:41.142Z,50.70
2019-04-01T03:42:48.388Z,50.70
2019-04-01T03:46:54.125Z,50.60
2019-04-01T03:51:00.096Z,50.70
2019-04-01T03:55:06.807Z,50.60
2019-04-01T03:59:12.938Z,50.80
2019-04-01T04:03:19.453Z,50.90
2019-04-01T04:07:25.175Z,51.20
2019-04-01T04:11:31.880Z,51.20
2019-04-01T04:15:37.581Z,51.20
2019-04-01T04:19:43.705Z,51.20
2019-04-01T04:23:51.589Z,51.20
2019-04-01T04:27:57.650Z,51.30
2019-04-01T04:32:03.400Z,51.60
2019-04-01T04:36:09.399Z,51.40
2019-04-01T04:40:17.562Z,51.50
2019-04-01T04:44:23.254Z,51.50
2019-04-01T04:48:29.916Z,51.60
2019-04-01T04:52:35.662Z,51.70
2019-04-01T04:56:41.306Z,51.60
2019-04-01T05:00:47.141Z,52.40
2019-04-01T05:04:52.781Z,52.00
2019-04-01T05:08:58.648Z,51.90
2019-04-01T05:13:04.339Z,52.00
2019-04-01T05:17:10.073Z,52.10
2019-04-01T05:21:16.569Z,52.20
2019-04-01T05:25:22.281Z,52.50
2019-04-01T05:29:28.165Z,52.60
2019-04-01T05:33:34.234Z,52.60
2019-04-01T05:37:39.927Z,52.60
2019-04-01T05:41:46.569Z,52.60
2019-04-01T05:45:52.303Z,52.90
2019-04-01T05:49:57.987Z,52.80
2019-04-01T05:54:04.701Z,52.90
2019-04-01T05:58:12.033Z,53.30
2019-04-01T06:02:18.709Z,53.20
2019-04-01T06:06:25.242Z,53.40
2019-04-01T06:10:30.853Z,53.40
2019-04-01T06:14:36.565Z,53.30
2019-04-01T06:18:42.192Z,53.70
2019-04-01T06:22:47.912Z,53.60
2019-04-01T06:26:53.833Z,53.80
2019-04-01T06:30:59.557Z,53.90
2019-04-01T06:35:06.248Z,54.10
2019-04-01T06:39:12.913Z,54.20
2019-04-01T06:43:18.601Z,54.20
2019-04-01T06:47:25.668Z,54.40
2019-04-01T06:51:32.565Z,54.50
2019-04-01T06:55:38.158Z,54.40
2019-04-01T06:59:43.850Z,55.30
2019-04-01T07:03:49.615Z,54.70
2019-04-01T07:07:55.333Z,54.60
2019-04-01T07:12:01.909Z,54.80
2019-04-01T07:16:15.395Z,54.90
2019-04-01T07:20:14.964Z,54.90
2019-04-01T07:24:21.449Z,54.80
2019-04-01T07:28:27.244Z,55.00
2019-04-01T07:32:32.940Z,55.00
2019-04-01T07:36:38.569Z,55.00
2019-04-01T07:40:44.399Z,55.00
2019-04-01T07:44:50.393Z,55.10
2019-04-01T07:48:56.449Z,55.10
2019-04-01T07:53:02.129Z,55.20
2019-04-01T07:57:07.788Z,55.10
2019-04-01T08:01:15.031Z,55.10
2019-04-01T08:05:20.687Z,55.10
2019-04-01T08:09:27.476Z,55.10
2019-04-01T08:13:33.199Z,55.20
2019-04-01T08:17:38.866Z,55.20
2019-04-01T08:21:44.699Z,55.00
2019-04-01T08:25:50.383Z,55.10
2019-04-01T08:29:56.975Z,55.10
2019-04-01T08:34:02.678Z,54.90
2019-04-01T08:38:08.406Z,54.70
2019-04-01T08:42:14.849Z,54.80
2019-04-01T08:46:20.613Z,54.90
2019-04-01T08:50:26.367Z,55.50
2019-04-01T08:54:32.198Z,54.80
2019-04-01T08:58:37.841Z,54.40
2019-04-01T09:02:43.463Z,54.60
2019-04-01T09:06:49.236Z,54.60
2019-04-01T09:10:56.073Z,54.60
2019-04-01T09:15:02.569Z,54.50
2019-04-01T09:19:08.249Z,54.60
2019-04-01T09:23:14.352Z,54.30
2019-04-01T09:27:20.180Z,54.10
2019-04-01T09:31:25.737Z,53.80
2019-04-01T09:35:31.519Z,53.60
2019-04-01T09:39:37.122Z,53.60
2019-04-01T09:43:42.931Z,53.10
2019-04-01T09:47:49.813Z,53.50
2019-04-01T09:51:55.574Z,53.50
2019-04-01T09:56:01.215Z,53.40
2019-04-01T10:00:07.351Z,53.40
2019-04-01T10:04:13.329Z,52.20
2019-04-01T10:08:19.009Z,52.50
2019-04-01T10:12:25.148Z,52.40
2019-04-01T10:16:31.184Z,51.30
2019-04-01T10:20:37.045Z,52.00
2019-04-01T10:24:42.747Z,51.40
2019-04-01T10:28:49.256Z,51.00
2019-04-01T10:32:54.905Z,50.40
2019-04-01T10:37:00.597Z,50.40
2019-04-01T10:41:09.308Z,50.60
2019-04-01T10:45:15.432Z,51.00
2019-04-01T10:49:24.014Z,49.50
2019-04-01T10:53:31.418Z,49.30
2019-04-01T10:57:37.201Z,49.40
2019-04-01T11:01:43.477Z,49.80
2019-04-01T11:05:49.967Z,49.50
2019-04-01T11:09:55.615Z,48.30
2019-04-01T11:14:01.214Z,49.10
2019-04-01T11:18:07.947Z,48.50
2019-04-01T11:22:13.469Z,47.40
2019-04-01T11:26:19.186Z,48.20
2019-04-01T11:30:24.872Z,47.90
2019-04-01T11:34:30.574Z,48.30
2019-04-01T11:38:36.271Z,47.20
2019-04-01T11:42:42.147Z,48.10
2019-04-01T11:46:47.822Z,46.80
2019-04-01T11:50:53.961Z,47.00
2019-04-01T11:55:00.462Z,46.60
2019-04-01T11:59:06.340Z,46.40
2019-04-01T12:03:12.224Z,45.80
2019-04-01T12:07:19.228Z,45.50
2019-04-01T12:11:25.927Z,46.00
2019-04-01T12:15:32.827Z,46.00
2019-04-01T12:19:40.079Z,45.10
2019-04-01T12:23:46.020Z,44.60
2019-04-01T12:27:51.797Z,44.60
2019-04-01T12:31:59.763Z,45.20
2019-04-01T12:36:11.437Z,44.80
2019-04-01T12:40:17.270Z,44.40
2019-04-01T12:44:26.242Z,44.40
2019-04-01T12:48:35.018Z,44.80
2019-04-01T12:52:44.703Z,44.70
2019-04-01T12:56:52.569Z,44.00
2019-04-01T13:01:01.051Z,43.70
2019-04-01T13:05:12.113Z,44.00
2019-04-01T13:09:19.140Z,42.90
2019-04-01T13:13:25.941Z,43.30
2019-04-01T13:17:32.331Z,42.40
2019-04-01T13:21:39.916Z,42.90
2019-04-01T13:25:46.508Z,42.50
2019-04-01T13:29:53.609Z,42.70
2019-04-01T13:34:01.061Z,41.70
2019-04-01T13:38:11.239Z,42.20
2019-04-01T13:42:17.190Z,41.80
2019-04-01T13:46:23.784Z,42.20
2019-04-01T13:50:31.738Z,41.40
2019-04-01T13:54:39.274Z,41.10
2019-04-01T13:58:46.091Z,41.70
2019-04-01T14:02:53.341Z,41.20
2019-04-01T14:06:59.998Z,41.40
2019-04-01T14:11:07.725Z,40.80
2019-04-01T14:15:14.641Z,41.10
2019-04-01T14:19:21.008Z,40.70
2019-04-01T14:23:26.807Z,40.90
2019-04-01T14:27:35.017Z,39.80
2019-04-01T14:31:40.912Z,40.20
2019-04-01T14:35:46.977Z,39.80
2019-04-01T14:39:52.622Z,40.00
2019-04-01T14:43:59.811Z,40.20
2019-04-01T14:48:08.192Z,40.00
2019-04-01T14:52:13.563Z,39.50
2019-04-01T14:56:19.275Z,39.90
2019-04-01T15:00:24.953Z,39.60
2019-04-01T15:04:30.671Z,38.60
2019-04-01T15:08:36.336Z,39.10
2019-04-01T15:12:42.005Z,39.00
2019-04-01T15:16:47.744Z,38.50
2019-04-01T15:20:53.406Z,39.00
2019-04-01T15:24:59.405Z,39.00
2019-04-01T15:29:05.467Z,38.90
2019-04-01T15:33:11.292Z,38.70
2019-04-01T15:37:18.093Z,38.90
2019-04-01T15:41:26.907Z,38.70
2019-04-01T15:45:33.150Z,38.70
2019-04-01T15:49:40.097Z,38.60
2019-04-01T15:53:45.939Z,38.50
2019-04-01T15:57:51.721Z,37.80
2019-04-01T16:01:58.208Z,38.40
2019-04-01T16:06:07.785Z,38.20
2019-04-01T16:10:14.606Z,38.10
2019-04-01T16:14:21.894Z,38.20
2019-04-01T16:18:27.783Z,38.10
2019-04-01T16:22:35.482Z,37.90
2019-04-01T16:26:44.363Z,38.20
2019-04-01T16:30:50.179Z,38.10
2019-04-01T16:34:57.446Z,37.30
2019-04-01T16:39:07.064Z,37.50
2019-04-01T16:43:14.111Z,37.80
2019-04-01T16:47:32.190Z,37.90
2019-04-01T16:51:43.989Z,37.80
2019-04-01T16:55:54.697Z,37.90
2019-04-01T17:00:00.676Z,38.10
2019-04-01T17:04:13.187Z,37.90
2019-04-01T17:08:42.288Z,38.10
2019-04-01T17:12:49.860Z,38.10
2019-04-01T17:16:59.622Z,38.30
2019-04-01T17:21:05.676Z,38.40
2019-04-01T17:25:13.548Z,38.50
2019-04-01T17:33:56.410Z,38.70
2019-04-01T17:38:03.303Z,38.60
2019-04-01T17:42:08.978Z,37.80
2019-04-01T17:50:47.949Z,38.40
2019-04-01T17:54:57.483Z,38.40
2019-04-01T17:59:03.119Z,38.40
2019-04-01T18:03:10.072Z,38.30
2019-04-01T18:07:16.795Z,38.30
2019-04-01T18:11:23.661Z,38.30
2019-04-01T18:15:31.840Z,38.30
2019-04-01T18:19:40.904Z,38.20
2019-04-01T18:23:46.963Z,38.30
2019-04-01T18:27:54.078Z,38.40
2019-04-01T18:32:02.390Z,38.60
2019-04-01T18:36:09.985Z,38.40
2019-04-01T18:40:15.737Z,38.50
2019-04-01T18:44:23.381Z,38.50
2019-04-01T18:48:34.122Z,38.60
2019-04-01T18:52:40.283Z,38.80
2019-04-01T18:56:47.951Z,38.80
2019-04-01T19:00:55.462Z,38.80
2019-04-01T19:05:01.493Z,38.90
2019-04-01T19:09:10.788Z,39.00
2019-04-01T19:13:19.541Z,39.10
2019-04-01T19:17:26.508Z,39.10
2019-04-01T19:21:32.926Z,39.20
2019-04-01T19:25:38.775Z,39.20
2019-04-01T19:29:45.554Z,39.30
2019-04-01T19:33:52.025Z,39.30
2019-04-01T19:37:57.921Z,39.30
2019-04-01T19:42:05.461Z,39.30
2019-04-01T19:46:11.260Z,39.40
2019-04-01T19:50:18.545Z,39.50
2019-04-01T19:54:31.233Z,39.60
2019-04-01T19:58:33.780Z,39.60
2019-04-01T20:02:39.891Z,39.70
2019-04-01T20:06:48.456Z,39.70
2019-04-01T20:10:57.008Z,39.80
2019-04-01T20:15:03.125Z,39.70
2019-04-01T20:19:09.389Z,39.80
2019-04-01T20:23:16.333Z,39.90
2019-04-01T20:27:23.319Z,40.00
2019-04-01T20:31:30.829Z,40.00
2019-04-01T20:35:38.564Z,39.90
2019-04-01T20:39:44.627Z,40.00
2019-04-01T20:43:50.521Z,40.10
2019-04-01T20:47:58.074Z,40.10
2019-04-01T20:52:06.587Z,40.20
2019-04-01T20:56:17.849Z,41.10
2019-04-01T21:00:33.650Z,40.30
2019-04-01T21:04:39.506Z,40.40
2019-04-01T21:08:46.326Z,40.40
2019-04-01T21:12:53.494Z,40.50
2019-04-01T21:17:01.087Z,40.50
2019-04-01T21:21:06.931Z,40.60
2019-04-01T21:25:12.801Z,40.70
2019-04-01T21:29:18.488Z,40.70
2019-04-01T21:33:24.219Z,40.70
2019-04-01T21:37:32.585Z,40.80
2019-04-01T21:41:40.013Z,40.90
2019-04-01T21:45:46.884Z,40.90
2019-04-01T21:49:56.355Z,40.90
2019-04-01T21:54:02.673Z,41.10
2019-04-01T21:58:08.734Z,41.10
2019-04-01T22:02:15.561Z,41.20
2019-04-01T22:06:21.302Z,41.20
2019-04-01T22:10:27.102Z,41.30
2019-04-01T22:14:32.895Z,41.40
2019-04-01T22:18:38.669Z,41.40
2019-04-01T22:22:46.205Z,41.40
2019-04-01T22:26:51.839Z,41.50
2019-04-01T22:30:57.811Z,41.60
2019-04-01T22:35:05.637Z,41.60
2019-04-01T22:39:11.841Z,41.60
2019-04-01T22:43:17.676Z,41.80
2019-04-01T22:47:24.490Z,41.80
2019-04-01T22:51:31.610Z,41.90
2019-04-01T22:55:38.546Z,41.80
2019-04-01T22:59:44.296Z,42.00
2019-04-01T23:03:51.247Z,42.10
2019-04-01T23:07:57.064Z,42.10
2019-04-01T23:12:02.718Z,42.20
2019-04-01T23:16:08.774Z,42.30
2019-04-01T23:20:15.389Z,42.30
2019-04-01T23:24:21.068Z,42.40
2019-04-01T23:28:28.842Z,42.50
2019-04-01T23:32:34.557Z,42.60
2019-04-01T23:36:41.120Z,42.70
2019-04-01T23:40:47.977Z,42.80
2019-04-01T23:44:53.922Z,42.70
2019-04-01T23:48:59.660Z,42.80
2019-04-01T23:53:07.624Z,42.90
2019-04-01T23:57:15.000Z,43.00
